createdAt,value
2022-10-26T00:00:01.039Z,304.08
2022-10-26T00:01:01.035Z,304.01
2022-10-26T00:02:01.115Z,304.85
2022-10-26T00:03:01.013Z,304.99
2022-10-26T00:04:01.024Z,304.07
2022-10-26T00:05:00.985Z,304.33
2022-10-26T00:06:00.975Z,303.97
2022-10-26T00:07:00.980Z,303.59
2022-10-26T00:08:00.964Z,303.90
2022-10-26T00:09:00.953Z,303.95
2022-10-26T00:10:00.952Z,304.66
2022-10-26T00:11:00.923Z,304.49
2022-10-26T00:12:00.941Z,304.46
2022-10-26T00:13:00.901Z,304.35
2022-10-26T00:14:00.892Z,303.98
2022-10-26T00:15:00.895Z,304.13
2022-10-26T00:17:00.860Z,304.28
2022-10-26T00:18:00.840Z,304.50
2022-10-26T00:19:00.846Z,304.08
2022-10-26T00:20:00.821Z,304.05
2022-10-26T00:21:00.833Z,303.97
2022-10-26T00:22:00.798Z,304.35
2022-10-26T00:23:00.805Z,304.55
2022-10-26T00:24:00.787Z,304.03
2022-10-26T00:25:01.681Z,304.73
2022-10-26T00:26:00.759Z,303.85
2022-10-26T00:27:00.765Z,304.18
2022-10-26T00:28:00.728Z,304.03
2022-10-26T00:29:00.723Z,304.25
2022-10-26T00:30:00.705Z,304.31
2022-10-26T00:31:00.697Z,302.43
2022-10-26T00:32:00.702Z,305.01
2022-10-26T00:33:00.684Z,303.99
2022-10-26T00:34:00.667Z,303.09
2022-10-26T00:35:10.441Z,304.40
2022-10-26T00:36:01.664Z,304.05
2022-10-26T00:37:00.658Z,304.49
2022-10-26T00:38:00.657Z,304.02
2022-10-26T00:39:00.620Z,303.44
2022-10-26T00:40:00.625Z,304.47
2022-10-26T00:41:00.592Z,303.65
2022-10-26T00:42:01.178Z,303.79
2022-10-26T00:43:00.565Z,304.17
2022-10-26T00:44:00.560Z,304.22
2022-10-26T00:45:00.557Z,304.07
2022-10-26T00:46:00.561Z,303.53
2022-10-26T00:47:00.528Z,304.61
2022-10-26T00:48:00.530Z,304.54
2022-10-26T00:49:00.503Z,304.36
2022-10-26T00:50:00.488Z,304.36
2022-10-26T00:51:00.481Z,304.64
2022-10-26T00:52:00.463Z,304.10
2022-10-26T00:53:00.459Z,304.50
2022-10-26T00:54:00.458Z,304.48
2022-10-26T00:55:00.439Z,304.61
2022-10-26T00:56:00.433Z,304.38
2022-10-26T00:57:00.410Z,304.51
2022-10-26T00:58:00.399Z,304.03
2022-10-26T00:59:00.417Z,304.10
2022-10-26T01:00:00.375Z,304.48
2022-10-26T01:01:00.373Z,304.26
2022-10-26T01:02:00.353Z,304.53
2022-10-26T01:03:00.350Z,305.48
2022-10-26T01:04:00.465Z,304.40
2022-10-26T01:05:00.707Z,304.64
2022-10-26T01:06:00.341Z,304.42
2022-10-26T01:07:00.367Z,304.90
2022-10-26T01:08:00.305Z,304.83
2022-10-26T01:09:00.283Z,303.99
2022-10-26T01:10:00.288Z,304.03
2022-10-26T01:11:00.268Z,304.43
2022-10-26T01:12:00.270Z,304.21
2022-10-26T01:13:00.288Z,304.29
2022-10-26T01:14:00.220Z,304.16
2022-10-26T01:15:00.216Z,304.30
2022-10-26T01:16:00.213Z,304.85
2022-10-26T01:17:00.233Z,304.44
2022-10-26T01:18:00.181Z,304.62
2022-10-26T01:19:00.178Z,304.42
2022-10-26T01:20:01.121Z,304.48
2022-10-26T01:21:00.164Z,304.05
2022-10-26T01:22:00.137Z,304.80
2022-10-26T01:23:00.136Z,304.51
2022-10-26T01:24:00.117Z,304.66
2022-10-26T01:25:00.110Z,304.50
2022-10-26T01:26:00.093Z,303.92
2022-10-26T01:27:00.098Z,304.27
2022-10-26T01:28:00.090Z,304.09
2022-10-26T01:29:00.057Z,303.73
2022-10-26T01:30:00.047Z,305.24
2022-10-26T01:31:00.038Z,304.88
2022-10-26T01:32:00.040Z,304.40
2022-10-26T01:33:00.026Z,304.25
2022-10-26T01:34:00.005Z,304.92
2022-10-26T01:34:59.993Z,304.16
2022-10-26T01:35:59.981Z,304.02
2022-10-26T01:36:59.968Z,304.55
2022-10-26T01:38:00.680Z,304.27
2022-10-26T01:38:59.947Z,304.46
2022-10-26T01:39:59.931Z,304.27
2022-10-26T01:40:59.931Z,304.39
2022-10-26T01:41:59.914Z,304.80
2022-10-26T01:43:00.213Z,304.55
2022-10-26T01:43:59.895Z,302.05
2022-10-26T01:44:59.889Z,304.93
2022-10-26T01:45:59.866Z,304.47
2022-10-26T01:46:59.869Z,304.12
2022-10-26T01:47:59.855Z,304.48
2022-10-26T01:48:59.855Z,304.34
2022-10-26T01:49:59.825Z,304.11
2022-10-26T01:50:59.820Z,304.68
2022-10-26T01:51:59.798Z,304.60
2022-10-26T01:52:59.796Z,304.35
2022-10-26T01:53:59.781Z,304.22
2022-10-26T01:54:59.833Z,304.80
2022-10-26T01:55:59.760Z,304.17
2022-10-26T01:56:59.759Z,304.66
2022-10-26T01:57:59.761Z,304.12
2022-10-26T01:58:59.783Z,305.23
2022-10-26T01:59:59.738Z,305.34
2022-10-26T02:00:59.720Z,304.53
2022-10-26T02:01:59.693Z,304.64
2022-10-26T02:02:59.690Z,304.12
2022-10-26T02:03:59.755Z,304.60
2022-10-26T02:04:59.671Z,304.56
2022-10-26T02:05:59.643Z,304.58
2022-10-26T02:06:59.631Z,304.48
2022-10-26T02:07:59.633Z,304.61
2022-10-26T02:08:59.633Z,304.43
2022-10-26T02:09:59.598Z,304.31
2022-10-26T02:10:59.618Z,304.09
2022-10-26T02:11:59.588Z,303.82
2022-10-26T02:12:59.569Z,304.40
2022-10-26T02:13:59.563Z,304.71
2022-10-26T02:14:59.580Z,304.33
2022-10-26T02:15:59.538Z,304.51
2022-10-26T02:16:59.544Z,304.38
2022-10-26T02:17:59.516Z,304.89
2022-10-26T02:18:59.510Z,303.87
2022-10-26T02:19:59.503Z,304.72
2022-10-26T02:20:59.490Z,304.30
2022-10-26T02:21:59.510Z,304.33
2022-10-26T02:22:59.477Z,304.56
2022-10-26T02:23:59.510Z,304.16
2022-10-26T02:24:59.459Z,304.13
2022-10-26T02:25:59.420Z,303.57
2022-10-26T02:26:59.424Z,304.98
2022-10-26T02:27:59.401Z,304.95
2022-10-26T02:28:59.414Z,304.59
2022-10-26T02:29:59.398Z,304.58
2022-10-26T02:30:59.377Z,304.48
2022-10-26T02:31:59.367Z,304.59
2022-10-26T02:32:59.349Z,304.22
2022-10-26T02:33:59.337Z,303.96
2022-10-26T02:34:59.339Z,304.46
2022-10-26T02:35:59.319Z,303.71
2022-10-26T02:36:59.314Z,304.10
2022-10-26T02:37:59.298Z,304.47
2022-10-26T02:38:59.283Z,303.77
2022-10-26T02:39:59.277Z,303.92
2022-10-26T02:40:59.265Z,304.86
2022-10-26T02:41:59.246Z,305.06
2022-10-26T02:42:59.235Z,304.43
2022-10-26T02:43:59.222Z,304.60
2022-10-26T02:44:59.208Z,304.28
2022-10-26T02:45:59.215Z,303.90
2022-10-26T02:46:59.210Z,304.25
2022-10-26T02:47:59.194Z,304.22
2022-10-26T02:48:59.174Z,304.16
2022-10-26T02:49:59.170Z,304.32
2022-10-26T02:50:59.166Z,303.81
2022-10-26T02:51:59.139Z,303.98
2022-10-26T02:52:59.128Z,304.38
2022-10-26T02:53:59.126Z,303.95
2022-10-26T02:54:59.109Z,305.42
2022-10-26T02:55:59.094Z,305.03
2022-10-26T02:56:59.090Z,304.65
2022-10-26T02:57:59.066Z,304.51
2022-10-26T02:58:59.070Z,304.32
2022-10-26T02:59:59.098Z,304.76
2022-10-26T03:00:59.044Z,304.47
2022-10-26T03:01:59.021Z,304.42
2022-10-26T03:02:59.013Z,304.37
2022-10-26T03:03:59.062Z,304.37
2022-10-26T03:04:59.013Z,304.73
2022-10-26T03:05:58.998Z,304.63
2022-10-26T03:06:58.976Z,303.99
2022-10-26T03:07:58.962Z,304.13
2022-10-26T03:08:58.956Z,304.13
2022-10-26T03:09:58.940Z,304.95
2022-10-26T03:10:58.943Z,305.35
2022-10-26T03:11:58.911Z,304.46
2022-10-26T03:12:58.897Z,304.03
2022-10-26T03:13:58.889Z,304.50
2022-10-26T03:14:58.882Z,304.48
2022-10-26T03:15:58.878Z,304.52
2022-10-26T03:16:58.867Z,304.32
2022-10-26T03:17:58.852Z,304.48
2022-10-26T03:18:58.835Z,304.34
2022-10-26T03:19:58.834Z,303.95
2022-10-26T03:20:58.816Z,304.93
2022-10-26T03:21:58.815Z,304.43
2022-10-26T03:22:58.810Z,304.03
2022-10-26T03:23:58.787Z,304.96
2022-10-26T03:24:58.858Z,305.79
2022-10-26T03:25:58.756Z,304.49
2022-10-26T03:27:01.252Z,304.58
2022-10-26T03:27:58.739Z,304.86
2022-10-26T03:28:58.730Z,304.32
2022-10-26T03:29:58.712Z,304.67
2022-10-26T03:30:58.711Z,304.76
2022-10-26T03:31:58.691Z,304.44
2022-10-26T03:32:58.693Z,304.39
2022-10-26T03:33:58.683Z,304.60
2022-10-26T03:34:58.663Z,304.49
2022-10-26T03:35:58.666Z,304.33
2022-10-26T03:36:58.647Z,303.90
2022-10-26T03:37:58.638Z,305.31
2022-10-26T03:38:58.632Z,304.75
2022-10-26T03:39:58.609Z,304.56
2022-10-26T03:40:58.594Z,304.63
2022-10-26T03:41:58.587Z,304.36
2022-10-26T03:42:58.571Z,304.74
2022-10-26T03:43:58.558Z,304.91
2022-10-26T03:44:58.563Z,304.41
2022-10-26T03:45:58.539Z,303.72
2022-10-26T03:46:58.537Z,303.91
2022-10-26T03:47:58.527Z,304.63
2022-10-26T03:48:58.510Z,304.00
2022-10-26T03:49:58.567Z,304.34
2022-10-26T03:50:58.498Z,304.79
2022-10-26T03:51:58.474Z,305.97
2022-10-26T03:52:58.454Z,304.49
2022-10-26T03:53:58.438Z,304.87
2022-10-26T03:54:58.455Z,304.65
2022-10-26T03:55:58.483Z,304.53
2022-10-26T03:56:58.433Z,304.92
2022-10-26T03:57:58.410Z,304.28
2022-10-26T03:58:58.413Z,304.42
2022-10-26T03:59:58.402Z,304.33
2022-10-26T04:00:58.382Z,304.48
2022-10-26T04:01:58.461Z,304.31
2022-10-26T04:02:58.352Z,304.36
2022-10-26T04:03:58.472Z,304.65
2022-10-26T04:04:58.346Z,304.45
2022-10-26T04:05:58.328Z,304.89
2022-10-26T04:06:58.315Z,305.13
2022-10-26T04:07:58.296Z,304.18
2022-10-26T04:08:58.286Z,304.30
2022-10-26T04:09:58.279Z,304.75
2022-10-26T04:11:01.008Z,304.69
2022-10-26T04:11:59.248Z,304.13
2022-10-26T04:12:58.235Z,304.48
2022-10-26T04:13:58.265Z,304.34
2022-10-26T04:14:58.460Z,303.96
2022-10-26T04:15:58.202Z,305.05
2022-10-26T04:16:58.209Z,304.69
2022-10-26T04:17:58.178Z,303.86
2022-10-26T04:18:58.164Z,304.55
2022-10-26T04:19:58.202Z,304.09
2022-10-26T04:20:58.158Z,304.93
2022-10-26T04:21:58.140Z,304.67
2022-10-26T04:22:58.129Z,304.37
2022-10-26T04:23:58.151Z,304.44
2022-10-26T04:24:58.108Z,305.58
2022-10-26T04:25:58.096Z,304.32
2022-10-26T04:26:58.091Z,304.92
2022-10-26T04:27:58.070Z,304.63
2022-10-26T04:28:58.058Z,304.34
2022-10-26T04:29:58.066Z,304.30
2022-10-26T04:30:58.039Z,304.22
2022-10-26T04:31:58.028Z,304.23
2022-10-26T04:32:58.008Z,303.25
2022-10-26T04:33:57.999Z,304.75
2022-10-26T04:34:57.999Z,304.56
2022-10-26T04:35:57.993Z,304.43
2022-10-26T04:36:57.979Z,304.20
2022-10-26T04:37:57.964Z,304.80
2022-10-26T04:38:57.950Z,304.55
2022-10-26T04:39:58.344Z,304.38
2022-10-26T04:40:57.939Z,304.77
2022-10-26T04:41:57.918Z,304.27
2022-10-26T04:42:57.922Z,304.45
2022-10-26T04:43:57.903Z,304.15
2022-10-26T04:44:57.884Z,303.97
2022-10-26T04:45:57.877Z,304.15
2022-10-26T04:46:57.857Z,304.04
2022-10-26T04:47:57.851Z,304.42
2022-10-26T04:48:57.841Z,304.69
2022-10-26T04:49:57.825Z,304.36
2022-10-26T04:50:57.830Z,304.04
2022-10-26T04:51:57.821Z,304.52
2022-10-26T04:52:57.799Z,304.54
2022-10-26T04:53:57.800Z,304.62
2022-10-26T04:54:57.780Z,304.39
2022-10-26T04:55:57.763Z,304.62
2022-10-26T04:56:57.767Z,304.52
2022-10-26T04:58:00.393Z,304.47
2022-10-26T04:58:57.722Z,304.09
2022-10-26T04:59:57.717Z,304.26
2022-10-26T05:00:57.730Z,303.76
2022-10-26T05:01:57.791Z,304.84
2022-10-26T05:02:57.689Z,305.49
2022-10-26T05:03:57.678Z,304.63
2022-10-26T05:04:57.720Z,304.20
2022-10-26T05:05:57.663Z,304.50
2022-10-26T05:06:57.672Z,304.98
2022-10-26T05:07:57.649Z,304.61
2022-10-26T05:08:57.652Z,304.67
2022-10-26T05:09:57.672Z,304.50
2022-10-26T05:10:57.596Z,306.48
2022-10-26T05:11:57.601Z,304.01
2022-10-26T05:12:57.578Z,303.93
2022-10-26T05:13:57.560Z,304.10
2022-10-26T05:14:57.614Z,304.42
2022-10-26T05:15:57.542Z,304.43
2022-10-26T05:16:57.555Z,304.67
2022-10-26T05:17:57.518Z,304.13
2022-10-26T05:18:57.520Z,301.14
2022-10-26T05:19:57.500Z,304.32
2022-10-26T05:20:57.524Z,300.37
2022-10-26T05:21:57.476Z,299.19
2022-10-26T05:22:57.475Z,303.88
2022-10-26T05:23:57.477Z,295.41
2022-10-26T05:24:57.445Z,302.17
2022-10-26T05:25:57.446Z,303.89
2022-10-26T05:26:57.418Z,302.94
2022-10-26T05:27:57.429Z,304.32
2022-10-26T05:28:57.410Z,304.53
2022-10-26T05:29:57.441Z,304.07
2022-10-26T05:30:57.376Z,305.37
2022-10-26T05:31:57.368Z,304.56
2022-10-26T05:32:57.352Z,304.13
2022-10-26T05:33:57.340Z,304.89
2022-10-26T05:34:57.326Z,303.63
2022-10-26T05:35:57.335Z,304.41
2022-10-26T05:36:57.381Z,303.72
2022-10-26T05:37:57.295Z,303.95
2022-10-26T05:38:57.289Z,303.71
2022-10-26T05:39:57.277Z,304.01
2022-10-26T05:40:57.294Z,305.08
2022-10-26T05:41:57.309Z,304.58
2022-10-26T05:42:57.275Z,304.57
2022-10-26T05:43:57.234Z,306.58
2022-10-26T05:44:57.230Z,307.83
2022-10-26T05:45:57.222Z,304.66
2022-10-26T05:46:57.219Z,303.54
2022-10-26T05:48:00.021Z,303.82
2022-10-26T05:48:58.177Z,304.38
2022-10-26T05:49:57.189Z,304.28
2022-10-26T05:50:57.151Z,304.87
2022-10-26T05:51:57.152Z,304.26
2022-10-26T05:52:57.698Z,305.86
2022-10-26T05:53:57.117Z,303.99
2022-10-26T05:54:57.243Z,305.38
2022-10-26T05:55:57.097Z,305.30
2022-10-26T05:56:57.098Z,305.00
2022-10-26T05:57:57.123Z,304.00
2022-10-26T05:58:57.084Z,305.58
2022-10-26T05:59:57.054Z,304.93
2022-10-26T06:00:57.040Z,304.90
2022-10-26T06:01:57.148Z,304.65
2022-10-26T06:02:57.035Z,304.44
2022-10-26T06:03:57.021Z,304.40
2022-10-26T06:04:57.011Z,303.87
2022-10-26T06:05:56.994Z,304.65
2022-10-26T06:06:56.973Z,304.49
2022-10-26T06:07:56.976Z,304.56
2022-10-26T06:08:56.952Z,304.02
2022-10-26T06:09:56.950Z,305.07
2022-10-26T06:10:56.932Z,304.65
2022-10-26T06:11:56.927Z,304.39
2022-10-26T06:12:56.905Z,304.81
2022-10-26T06:13:57.285Z,306.07
2022-10-26T06:14:56.887Z,304.82
2022-10-26T06:15:56.885Z,304.97
2022-10-26T06:16:56.864Z,304.95
2022-10-26T06:17:56.957Z,305.06
2022-10-26T06:18:59.600Z,304.67
2022-10-26T06:19:57.841Z,304.91
2022-10-26T06:20:56.822Z,305.33
2022-10-26T06:21:56.803Z,305.50
2022-10-26T06:22:56.809Z,305.17
2022-10-26T06:23:56.814Z,305.25
2022-10-26T06:24:56.814Z,305.64
2022-10-26T06:25:56.773Z,306.11
2022-10-26T06:26:56.756Z,304.85
2022-10-26T06:27:56.746Z,305.75
2022-10-26T06:28:56.742Z,306.42
2022-10-26T06:29:56.756Z,305.45
2022-10-26T06:30:56.708Z,305.50
2022-10-26T06:31:56.696Z,305.65
2022-10-26T06:33:06.018Z,305.86
2022-10-26T06:33:57.665Z,306.52
2022-10-26T06:34:56.656Z,305.59
2022-10-26T06:35:56.659Z,305.71
2022-10-26T06:36:56.646Z,306.20
2022-10-26T06:37:56.627Z,305.73
2022-10-26T06:38:56.612Z,306.18
2022-10-26T06:39:56.612Z,305.90
2022-10-26T06:40:56.618Z,306.20
2022-10-26T06:41:56.609Z,305.92
2022-10-26T06:42:56.583Z,306.60
2022-10-26T06:43:56.570Z,307.12
2022-10-26T06:44:56.568Z,306.60
2022-10-26T06:45:56.558Z,306.64
2022-10-26T06:46:56.558Z,306.52
2022-10-26T06:47:56.522Z,306.30
2022-10-26T06:48:56.503Z,306.01
2022-10-26T06:49:56.514Z,306.11
2022-10-26T06:50:56.513Z,305.91
2022-10-26T06:51:56.475Z,306.77
2022-10-26T06:52:56.493Z,306.65
2022-10-26T06:53:56.460Z,306.55
2022-10-26T06:54:56.438Z,306.41
2022-10-26T06:55:56.434Z,305.92
2022-10-26T06:56:56.413Z,306.02
2022-10-26T06:57:56.410Z,307.44
2022-10-26T06:58:56.394Z,307.11
2022-10-26T06:59:56.383Z,306.34
2022-10-26T07:00:56.375Z,306.58
2022-10-26T07:01:56.525Z,306.19
2022-10-26T07:02:56.453Z,306.35
2022-10-26T07:03:56.340Z,306.69
2022-10-26T07:04:56.324Z,306.39
2022-10-26T07:05:56.326Z,306.27
2022-10-26T07:06:56.310Z,305.92
2022-10-26T07:07:56.304Z,306.92
2022-10-26T07:08:56.312Z,306.81
2022-10-26T07:09:56.273Z,306.20
2022-10-26T07:10:56.266Z,306.51
2022-10-26T07:11:56.271Z,307.01
2022-10-26T07:12:56.232Z,307.63
2022-10-26T07:13:56.238Z,306.54
2022-10-26T07:14:56.862Z,306.59
2022-10-26T07:15:56.205Z,306.75
2022-10-26T07:16:56.186Z,306.53
2022-10-26T07:17:56.198Z,306.45
2022-10-26T07:18:56.176Z,306.46
2022-10-26T07:19:56.183Z,306.51
2022-10-26T07:20:56.148Z,306.82
2022-10-26T07:21:56.144Z,306.19
2022-10-26T07:22:56.138Z,306.21
2022-10-26T07:23:56.135Z,306.31
2022-10-26T07:24:58.092Z,306.50
2022-10-26T07:25:56.111Z,306.34
2022-10-26T07:26:56.087Z,306.61
2022-10-26T07:27:56.086Z,306.64
2022-10-26T07:28:56.077Z,306.11
2022-10-26T07:29:56.066Z,305.83
2022-10-26T07:30:56.327Z,305.69
2022-10-26T07:31:56.033Z,306.45
2022-10-26T07:32:56.016Z,305.99
2022-10-26T07:33:56.727Z,305.76
2022-10-26T07:34:56.778Z,305.97
2022-10-26T07:35:56.019Z,305.56
2022-10-26T07:36:56.004Z,305.56
2022-10-26T07:37:55.966Z,305.17
2022-10-26T07:38:55.947Z,305.74
2022-10-26T07:39:55.953Z,305.48
2022-10-26T07:40:55.939Z,305.42
2022-10-26T07:41:55.942Z,304.50
2022-10-26T07:42:55.920Z,306.38
2022-10-26T07:43:55.893Z,306.57
2022-10-26T07:44:55.909Z,305.52
2022-10-26T07:45:55.890Z,305.37
2022-10-26T07:46:55.901Z,306.05
2022-10-26T07:47:55.858Z,305.98
2022-10-26T07:48:55.854Z,305.59
2022-10-26T07:49:55.835Z,305.91
2022-10-26T07:50:55.819Z,305.85
2022-10-26T07:51:55.814Z,306.42
2022-10-26T07:52:55.800Z,306.05
2022-10-26T07:53:55.803Z,305.26
2022-10-26T07:54:55.767Z,305.52
2022-10-26T07:55:55.755Z,305.73
2022-10-26T07:56:55.791Z,304.91
2022-10-26T07:57:56.162Z,304.82
2022-10-26T07:58:55.759Z,305.48
2022-10-26T07:59:55.741Z,305.85
2022-10-26T08:00:55.763Z,304.77
2022-10-26T08:01:55.860Z,305.22
2022-10-26T08:02:55.679Z,305.08
2022-10-26T08:03:55.671Z,305.36
2022-10-26T08:04:55.810Z,305.04
2022-10-26T08:05:55.653Z,305.70
2022-10-26T08:06:55.641Z,305.33
2022-10-26T08:07:55.626Z,305.14
2022-10-26T08:08:55.620Z,305.10
2022-10-26T08:09:55.639Z,304.72
2022-10-26T08:10:55.592Z,304.39
2022-10-26T08:11:55.691Z,304.53
2022-10-26T08:12:55.573Z,304.93
2022-10-26T08:13:55.578Z,305.66
2022-10-26T08:14:55.573Z,304.45
2022-10-26T08:15:55.539Z,303.17
2022-10-26T08:16:55.530Z,304.99
2022-10-26T08:17:55.583Z,304.66
2022-10-26T08:18:55.508Z,304.24
2022-10-26T08:19:55.500Z,304.31
2022-10-26T08:21:01.799Z,303.77
2022-10-26T08:21:56.479Z,303.83
2022-10-26T08:22:55.465Z,304.04
2022-10-26T08:23:55.447Z,303.51
2022-10-26T08:24:55.451Z,304.41
2022-10-26T08:25:55.435Z,303.76
2022-10-26T08:26:55.449Z,303.49
2022-10-26T08:27:55.407Z,304.37
2022-10-26T08:28:55.433Z,303.78
2022-10-26T08:29:55.414Z,303.89
2022-10-26T08:30:55.374Z,303.20
2022-10-26T08:31:55.384Z,303.14
2022-10-26T08:32:55.354Z,303.88
2022-10-26T08:33:55.334Z,303.95
2022-10-26T08:34:55.322Z,304.05
2022-10-26T08:35:55.326Z,302.95
2022-10-26T08:36:55.310Z,303.73
2022-10-26T08:37:55.333Z,303.77
2022-10-26T08:38:55.319Z,303.74
2022-10-26T08:39:56.638Z,304.14
2022-10-26T08:40:55.269Z,302.97
2022-10-26T08:41:55.250Z,303.18
2022-10-26T08:42:55.245Z,303.95
2022-10-26T08:43:55.424Z,304.93
2022-10-26T08:44:55.233Z,303.44
2022-10-26T08:45:55.214Z,304.01
2022-10-26T08:46:55.229Z,303.25
2022-10-26T08:47:55.183Z,303.07
2022-10-26T08:48:55.174Z,303.43
2022-10-26T08:49:55.195Z,303.55
2022-10-26T08:50:55.168Z,303.32
2022-10-26T08:51:55.156Z,303.22
2022-10-26T08:52:55.184Z,303.60
2022-10-26T08:53:55.114Z,303.53
2022-10-26T08:54:55.106Z,303.54
2022-10-26T08:55:55.120Z,303.46
2022-10-26T08:56:55.089Z,304.18
2022-10-26T08:57:55.120Z,303.74
2022-10-26T08:58:55.063Z,303.73
2022-10-26T08:59:55.054Z,304.01
2022-10-26T09:00:55.092Z,304.27
2022-10-26T09:01:55.091Z,304.00
2022-10-26T09:02:55.021Z,303.45
2022-10-26T09:03:55.052Z,303.62
2022-10-26T09:04:54.992Z,304.13
2022-10-26T09:05:54.987Z,303.85
2022-10-26T09:06:55.008Z,303.68
2022-10-26T09:07:54.974Z,303.40
2022-10-26T09:08:54.955Z,303.86
2022-10-26T09:09:54.942Z,303.68
2022-10-26T09:10:54.951Z,304.53
2022-10-26T09:11:54.942Z,303.84
2022-10-26T09:12:54.913Z,303.40
2022-10-26T09:13:57.598Z,304.71
2022-10-26T09:14:54.880Z,304.06
2022-10-26T09:15:54.890Z,304.08
2022-10-26T09:16:54.869Z,303.60
2022-10-26T09:17:54.872Z,303.92
2022-10-26T09:18:57.736Z,303.68
2022-10-26T09:19:55.836Z,303.22
2022-10-26T09:20:54.880Z,302.96
2022-10-26T09:21:54.811Z,303.15
2022-10-26T09:22:54.806Z,303.11
2022-10-26T09:23:54.788Z,303.53
2022-10-26T09:24:54.791Z,302.84
2022-10-26T09:25:54.768Z,302.93
2022-10-26T09:26:54.823Z,302.32
2022-10-26T09:27:54.746Z,302.26
2022-10-26T09:28:54.736Z,302.64
2022-10-26T09:29:54.720Z,303.63
2022-10-26T09:30:54.732Z,303.34
2022-10-26T09:31:54.755Z,303.31
2022-10-26T09:32:54.703Z,303.74
2022-10-26T09:33:54.680Z,302.34
2022-10-26T09:34:54.677Z,302.78
2022-10-26T09:35:54.659Z,303.05
2022-10-26T09:36:54.667Z,303.50
2022-10-26T09:37:54.635Z,302.73
2022-10-26T09:38:54.638Z,302.82
2022-10-26T09:39:54.618Z,302.94
2022-10-26T09:40:54.602Z,302.66
2022-10-26T09:41:54.600Z,302.93
2022-10-26T09:42:54.606Z,302.49
2022-10-26T09:43:54.576Z,303.94
2022-10-26T09:44:54.558Z,304.23
2022-10-26T09:45:54.582Z,303.82
2022-10-26T09:46:54.538Z,302.55
2022-10-26T09:47:54.525Z,302.87
2022-10-26T09:48:54.540Z,302.88
2022-10-26T09:49:54.508Z,302.79
2022-10-26T09:50:54.487Z,303.36
2022-10-26T09:51:54.475Z,302.72
2022-10-26T09:52:54.480Z,303.01
2022-10-26T09:53:54.458Z,302.00
2022-10-26T09:54:54.449Z,302.45
2022-10-26T09:55:54.436Z,302.36
2022-10-26T09:56:54.428Z,302.69
2022-10-26T09:57:54.424Z,302.20
2022-10-26T09:58:54.415Z,302.65
2022-10-26T09:59:54.396Z,303.41
2022-10-26T10:00:54.378Z,302.76
2022-10-26T10:01:54.488Z,302.18
2022-10-26T10:02:54.558Z,302.46
2022-10-26T10:03:54.359Z,302.77
2022-10-26T10:04:54.334Z,302.83
2022-10-26T10:05:54.327Z,302.49
2022-10-26T10:06:54.313Z,302.26
2022-10-26T10:07:54.298Z,302.85
2022-10-26T10:09:54.284Z,303.03
2022-10-26T10:10:54.268Z,302.28
2022-10-26T10:11:54.254Z,301.92
2022-10-26T10:12:54.245Z,302.53
2022-10-26T10:13:54.872Z,302.94
2022-10-26T10:14:54.240Z,303.78
2022-10-26T10:15:54.212Z,302.80
2022-10-26T10:16:54.234Z,303.57
2022-10-26T10:17:54.597Z,302.66
2022-10-26T10:18:54.176Z,303.07
2022-10-26T10:19:54.163Z,302.98
2022-10-26T10:20:54.171Z,303.19
2022-10-26T10:21:54.142Z,303.18
2022-10-26T10:22:54.144Z,303.33
2022-10-26T10:23:54.135Z,303.25
2022-10-26T10:24:54.141Z,303.69
2022-10-26T10:25:54.121Z,303.22
2022-10-26T10:26:54.113Z,302.94
2022-10-26T10:27:54.076Z,302.20
2022-10-26T10:28:54.077Z,303.56
2022-10-26T10:29:54.057Z,304.17
2022-10-26T10:30:54.046Z,302.73
2022-10-26T10:31:54.057Z,302.86
2022-10-26T10:32:54.248Z,302.82
2022-10-26T10:33:54.021Z,302.88
2022-10-26T10:34:54.031Z,302.98
2022-10-26T10:35:53.988Z,302.71
2022-10-26T10:36:53.977Z,303.26
2022-10-26T10:37:53.966Z,302.67
2022-10-26T10:38:53.979Z,302.93
2022-10-26T10:39:53.968Z,302.66
2022-10-26T10:40:53.934Z,302.83
2022-10-26T10:41:53.926Z,302.81
2022-10-26T10:42:54.035Z,302.95
2022-10-26T10:43:53.903Z,304.05
2022-10-26T10:44:53.908Z,303.15
2022-10-26T10:45:55.859Z,303.10
2022-10-26T10:46:53.861Z,302.79
2022-10-26T10:47:53.860Z,303.38
2022-10-26T10:48:53.842Z,303.37
2022-10-26T10:49:53.854Z,303.86
2022-10-26T10:50:53.820Z,302.63
2022-10-26T10:51:53.809Z,303.22
2022-10-26T10:52:53.819Z,303.40
2022-10-26T10:53:53.803Z,303.79
2022-10-26T10:54:53.797Z,302.84
2022-10-26T10:55:53.771Z,303.55
2022-10-26T10:56:53.762Z,303.59
2022-10-26T10:57:53.744Z,304.01
2022-10-26T10:58:53.736Z,303.39
2022-10-26T10:59:53.742Z,303.81
2022-10-26T11:00:53.713Z,304.00
2022-10-26T11:01:53.817Z,303.97
2022-10-26T11:02:53.709Z,303.96
2022-10-26T11:03:53.673Z,303.80
2022-10-26T11:04:53.668Z,304.00
2022-10-26T11:05:53.652Z,303.51
2022-10-26T11:06:53.655Z,304.06
2022-10-26T11:07:53.631Z,303.51
2022-10-26T11:08:53.621Z,303.67
2022-10-26T11:10:53.617Z,303.50
2022-10-26T11:11:53.596Z,303.50
2022-10-26T11:12:53.579Z,303.42
2022-10-26T11:13:53.577Z,303.31
2022-10-26T11:14:53.557Z,303.62
2022-10-26T11:15:53.568Z,304.42
2022-10-26T11:16:53.532Z,303.63
2022-10-26T11:17:53.532Z,303.68
2022-10-26T11:18:53.540Z,303.88
2022-10-26T11:19:53.497Z,303.06
2022-10-26T11:20:53.546Z,303.29
2022-10-26T11:21:53.494Z,303.38
2022-10-26T11:22:53.799Z,303.40
2022-10-26T11:23:53.497Z,302.79
2022-10-26T11:24:53.534Z,303.43
2022-10-26T11:25:53.436Z,301.95
2022-10-26T11:26:53.421Z,302.53
2022-10-26T11:27:53.398Z,302.86
2022-10-26T11:28:53.403Z,302.24
2022-10-26T11:29:53.382Z,302.49
2022-10-26T11:30:53.378Z,302.92
2022-10-26T11:31:53.363Z,302.46
2022-10-26T11:32:53.352Z,302.88
2022-10-26T11:33:53.410Z,302.41
2022-10-26T11:34:53.348Z,302.52
2022-10-26T11:35:53.317Z,302.08
2022-10-26T11:36:53.314Z,302.58
2022-10-26T11:37:53.310Z,302.57
2022-10-26T11:38:57.339Z,302.91
2022-10-26T11:39:53.308Z,302.84
2022-10-26T11:40:53.286Z,301.67
2022-10-26T11:41:53.290Z,302.07
2022-10-26T11:42:53.253Z,302.30
2022-10-26T11:43:53.254Z,302.93
2022-10-26T11:44:53.304Z,303.20
2022-10-26T11:45:53.313Z,302.25
2022-10-26T11:46:53.218Z,302.21
2022-10-26T11:47:53.375Z,302.78
2022-10-26T11:48:53.177Z,302.45
2022-10-26T11:49:53.165Z,302.78
2022-10-26T11:50:53.169Z,302.74
2022-10-26T11:51:53.149Z,302.43
2022-10-26T11:52:53.385Z,302.89
2022-10-26T11:53:53.132Z,302.09
2022-10-26T11:54:53.121Z,302.18
2022-10-26T11:55:53.158Z,301.58
2022-10-26T11:56:53.898Z,302.06
2022-10-26T11:57:53.166Z,301.89
2022-10-26T11:58:53.130Z,301.56
2022-10-26T11:59:53.060Z,302.43
2022-10-26T12:00:53.064Z,303.62
2022-10-26T12:01:53.064Z,302.42
2022-10-26T12:02:53.046Z,302.68
2022-10-26T12:03:53.012Z,302.35
2022-10-26T12:04:53.011Z,302.38
2022-10-26T12:05:53.103Z,302.22
2022-10-26T12:06:52.979Z,303.00
2022-10-26T12:07:53.214Z,302.26
2022-10-26T12:08:52.962Z,302.13
2022-10-26T12:09:52.957Z,302.17
2022-10-26T12:10:52.943Z,302.39
2022-10-26T12:11:52.925Z,302.01
2022-10-26T12:12:53.164Z,302.50
2022-10-26T12:13:52.906Z,302.30
2022-10-26T12:14:52.902Z,303.05
2022-10-26T12:16:08.211Z,302.70
2022-10-26T12:16:53.882Z,301.86
2022-10-26T12:17:52.893Z,302.31
2022-10-26T12:18:55.998Z,302.37
2022-10-26T12:19:53.341Z,302.73
2022-10-26T12:20:52.836Z,302.26
2022-10-26T12:21:52.813Z,302.81
2022-10-26T12:22:52.837Z,302.59
2022-10-26T12:23:52.803Z,302.17
2022-10-26T12:24:52.791Z,301.78
2022-10-26T12:25:52.772Z,302.42
2022-10-26T12:26:52.784Z,302.35
2022-10-26T12:27:52.754Z,302.80
2022-10-26T12:28:54.636Z,302.55
2022-10-26T12:29:52.729Z,302.27
2022-10-26T12:30:52.742Z,302.15